createdAt,value
2023-05-22T00:02:19.014Z,18.10
2023-05-22T00:04:48.721Z,18.10
2023-05-22T00:07:17.016Z,18.10
2023-05-22T00:09:45.469Z,18.00
2023-05-22T00:12:13.803Z,18.10
2023-05-22T00:14:42.181Z,18.00
2023-05-22T00:17:10.523Z,18.00
2023-05-22T00:19:39.037Z,18.00
2023-05-22T00:22:09.049Z,18.00
2023-05-22T00:24:37.537Z,18.00
2023-05-22T00:27:06.240Z,18.00
2023-05-22T00:29:34.967Z,18.00
2023-05-22T00:32:03.347Z,17.90
2023-05-22T00:34:31.796Z,17.90
2023-05-22T00:37:00.165Z,17.80
2023-05-22T00:39:30.089Z,17.90
2023-05-22T00:41:58.497Z,17.80
2023-05-22T00:44:27.270Z,17.80
2023-05-22T00:46:57.005Z,17.80
2023-05-22T00:49:25.692Z,17.80
2023-05-22T00:51:53.951Z,17.70
2023-05-22T00:54:22.615Z,17.70
2023-05-22T00:56:52.586Z,17.70
2023-05-22T00:59:21.177Z,17.70
2023-05-22T01:01:49.986Z,17.70
2023-05-22T01:04:18.795Z,17.60
2023-05-22T01:06:47.924Z,17.60
2023-05-22T01:09:17.745Z,17.70
2023-05-22T01:11:53.234Z,17.60
2023-05-22T01:14:31.309Z,17.60
2023-05-22T01:17:09.128Z,17.60
2023-05-22T01:20:01.498Z,17.60
2023-05-22T01:23:04.509Z,17.70
2023-05-22T01:25:50.567Z,17.60
2023-05-22T01:28:35.432Z,17.60
2023-05-22T01:31:09.097Z,17.60
2023-05-22T01:33:43.095Z,17.60
2023-05-22T01:36:15.934Z,17.50
2023-05-22T01:38:45.154Z,17.50
2023-05-22T01:41:13.817Z,17.50
2023-05-22T01:43:43.455Z,17.40
2023-05-22T01:46:13.209Z,17.40
2023-05-22T01:48:41.387Z,17.40
2023-05-22T01:51:16.050Z,17.40
2023-05-22T01:53:53.216Z,17.30
2023-05-22T01:56:30.876Z,17.30
2023-05-22T01:59:08.100Z,17.30
2023-05-22T02:01:38.648Z,17.30
2023-05-22T02:04:13.668Z,17.30
2023-05-22T02:06:44.420Z,17.30
2023-05-22T02:09:14.391Z,17.30
2023-05-22T02:11:43.572Z,17.30
2023-05-22T02:14:13.369Z,17.30
2023-05-22T02:16:46.931Z,17.30
2023-05-22T02:19:15.485Z,17.30
2023-05-22T02:21:44.446Z,17.30
2023-05-22T02:24:12.692Z,17.30
2023-05-22T02:26:40.913Z,17.30
2023-05-22T02:29:09.231Z,17.30
2023-05-22T02:31:37.478Z,17.30
2023-05-22T02:34:07.132Z,17.30
2023-05-22T02:36:37.326Z,17.30
2023-05-22T02:39:06.375Z,17.30
2023-05-22T02:41:34.768Z,17.30
2023-05-22T02:44:03.332Z,17.20
2023-05-22T02:46:31.608Z,17.20
2023-05-22T02:48:59.890Z,17.20
2023-05-22T02:51:30.214Z,17.20
2023-05-22T02:53:58.411Z,17.10
2023-05-22T02:56:29.209Z,17.10
2023-05-22T02:58:57.510Z,17.10
2023-05-22T03:01:26.627Z,17.10
2023-05-22T03:03:56.134Z,17.10
2023-05-22T03:06:25.712Z,17.00
2023-05-22T03:08:56.283Z,17.00
2023-05-22T03:11:25.243Z,17.00
2023-05-22T03:13:53.713Z,16.90
2023-05-22T03:16:21.997Z,16.90
2023-05-22T03:18:53.509Z,16.90
2023-05-22T03:21:21.899Z,16.80
2023-05-22T03:23:50.198Z,16.80
2023-05-22T03:26:19.850Z,16.80
2023-05-22T03:28:48.255Z,16.80
2023-05-22T03:31:17.946Z,16.80
2023-05-22T03:33:59.572Z,16.70
2023-05-22T03:36:27.868Z,16.70
2023-05-22T03:38:56.189Z,16.70
2023-05-22T03:41:25.996Z,16.70
2023-05-22T03:43:54.502Z,16.70
2023-05-22T03:46:24.590Z,16.70
2023-05-22T03:48:53.332Z,16.70
2023-05-22T03:51:21.672Z,16.60
2023-05-22T03:53:50.048Z,16.60
2023-05-22T03:56:18.454Z,16.60
2023-05-22T03:58:51.807Z,16.60
2023-05-22T04:01:20.260Z,16.60
2023-05-22T04:03:48.539Z,16.50
2023-05-22T04:06:17.920Z,16.50
2023-05-22T04:08:47.875Z,16.40
2023-05-22T04:11:16.825Z,16.40
2023-05-22T04:13:45.588Z,16.40
2023-05-22T04:16:17.783Z,16.30
2023-05-22T04:18:46.462Z,16.30
2023-05-22T04:21:14.873Z,16.30
2023-05-22T04:23:44.590Z,16.30
2023-05-22T04:26:13.453Z,16.20
2023-05-22T04:28:46.255Z,16.20
2023-05-22T04:31:16.120Z,16.20
2023-05-22T04:33:48.402Z,16.20
2023-05-22T04:36:17.609Z,16.20
2023-05-22T04:38:47.742Z,16.20
2023-05-22T04:41:18.373Z,16.30
2023-05-22T04:43:48.437Z,16.30
2023-05-22T04:46:18.794Z,16.30
2023-05-22T04:48:47.281Z,16.40
2023-05-22T04:51:17.047Z,16.30
2023-05-22T04:53:46.431Z,16.30
2023-05-22T04:56:21.303Z,16.30
2023-05-22T04:58:56.536Z,16.30
2023-05-22T05:01:28.007Z,16.40
2023-05-22T05:03:57.004Z,16.40
2023-05-22T05:06:26.329Z,16.40
2023-05-22T05:08:55.069Z,16.40
2023-05-22T05:11:23.316Z,16.40
2023-05-22T05:13:51.611Z,16.40
2023-05-22T05:16:20.162Z,16.40
2023-05-22T05:18:49.798Z,16.50
2023-05-22T05:21:18.961Z,16.50
2023-05-22T05:23:47.682Z,16.50
2023-05-22T05:26:15.962Z,16.50
2023-05-22T05:28:44.242Z,16.50
2023-05-22T05:31:12.883Z,16.60
2023-05-22T05:33:44.537Z,16.60
2023-05-22T05:36:25.413Z,16.60
2023-05-22T05:38:54.239Z,16.60
2023-05-22T05:41:23.095Z,16.60
2023-05-22T05:44:00.286Z,16.70
2023-05-22T05:46:31.849Z,16.70
2023-05-22T05:49:00.922Z,16.70
2023-05-22T05:51:31.219Z,16.80
2023-05-22T05:53:59.941Z,16.80
2023-05-22T05:56:28.189Z,16.90
2023-05-22T05:58:56.766Z,16.90
2023-05-22T06:01:54.336Z,17.00
2023-05-22T06:04:28.330Z,17.00
2023-05-22T06:06:58.552Z,17.10
2023-05-22T06:09:32.509Z,17.20
2023-05-22T06:12:16.998Z,17.20
2023-05-22T06:14:46.673Z,17.30
2023-05-22T06:17:16.463Z,17.40
2023-05-22T06:19:46.125Z,17.40
2023-05-22T06:22:16.842Z,17.40
2023-05-22T06:24:47.910Z,17.50
2023-05-22T06:27:20.482Z,17.50
2023-05-22T06:29:48.818Z,17.50
2023-05-22T06:32:17.374Z,17.60
2023-05-22T06:34:49.838Z,17.60
2023-05-22T06:37:23.446Z,17.70
2023-05-22T06:39:52.459Z,17.70
2023-05-22T06:42:29.817Z,17.70
2023-05-22T06:45:20.158Z,17.70
2023-05-22T06:48:08.272Z,17.80
2023-05-22T06:50:43.038Z,17.80
2023-05-22T06:53:13.240Z,17.80
2023-05-22T06:55:42.086Z,17.80
2023-05-22T06:58:16.879Z,17.90
2023-05-22T07:00:46.053Z,17.80
2023-05-22T07:03:22.741Z,17.90
2023-05-22T07:06:12.515Z,17.90
2023-05-22T07:08:43.861Z,17.90
2023-05-22T07:11:12.911Z,18.00
2023-05-22T07:13:41.765Z,18.00
2023-05-22T07:16:10.602Z,18.10
2023-05-22T07:18:40.494Z,18.10
2023-05-22T07:21:09.308Z,18.10
2023-05-22T07:23:38.228Z,18.10
2023-05-22T07:26:10.084Z,18.10
2023-05-22T07:28:46.941Z,18.10
2023-05-22T07:31:16.800Z,18.20
2023-05-22T07:33:47.356Z,18.20
2023-05-22T07:36:19.409Z,18.20
2023-05-22T07:38:47.995Z,18.20
2023-05-22T07:41:19.545Z,18.30
2023-05-22T07:43:48.490Z,18.30
2023-05-22T07:46:21.488Z,18.30
2023-05-22T07:49:00.051Z,18.40
2023-05-22T07:51:28.526Z,18.50
2023-05-22T07:56:27.421Z,18.50
2023-05-22T07:58:56.670Z,18.50
2023-05-22T08:01:25.303Z,18.50
2023-05-22T08:03:53.722Z,18.60
2023-05-22T08:06:23.719Z,18.60
2023-05-22T08:08:53.030Z,18.70
2023-05-22T08:11:21.496Z,18.70
2023-05-22T08:13:51.126Z,18.80
2023-05-22T08:16:19.832Z,18.80
2023-05-22T08:18:48.047Z,18.90
2023-05-22T08:21:16.305Z,18.90
2023-05-22T08:23:44.597Z,19.10
2023-05-22T08:26:12.805Z,19.10
2023-05-22T08:28:44.301Z,19.20
2023-05-22T08:31:14.638Z,19.20
2023-05-22T08:33:43.099Z,19.30
2023-05-22T08:36:11.826Z,19.30
2023-05-22T08:38:39.981Z,19.40
2023-05-22T08:41:09.061Z,19.40
2023-05-22T08:43:37.541Z,19.50
2023-05-22T08:46:08.696Z,19.50
2023-05-22T08:48:39.364Z,19.70
2023-05-22T08:51:09.173Z,19.70
2023-05-22T08:53:38.542Z,19.90
2023-05-22T08:56:08.560Z,20.10
2023-05-22T08:58:38.331Z,20.20
2023-05-22T09:01:07.409Z,20.20
2023-05-22T09:03:38.902Z,20.30
2023-05-22T09:06:09.499Z,20.30
2023-05-22T09:08:38.570Z,20.40
2023-05-22T09:11:06.759Z,20.40
2023-05-22T09:13:34.910Z,20.40
2023-05-22T09:16:11.391Z,20.40
2023-05-22T09:18:42.546Z,20.50
2023-05-22T09:21:25.861Z,20.50
2023-05-22T09:24:01.997Z,20.60
2023-05-22T09:26:30.810Z,20.90
2023-05-22T09:29:01.135Z,20.90
2023-05-22T09:31:30.532Z,20.90
2023-05-22T09:34:00.331Z,21.00
2023-05-22T09:36:33.587Z,21.00
2023-05-22T09:39:02.525Z,21.10
2023-05-22T09:41:31.535Z,21.10
2023-05-22T09:44:01.785Z,21.20
2023-05-22T09:46:30.798Z,21.30
2023-05-22T09:49:03.272Z,21.30
2023-05-22T09:51:32.090Z,21.30
2023-05-22T09:54:06.586Z,21.40
2023-05-22T09:56:40.156Z,21.40
2023-05-22T09:59:10.961Z,21.40
2023-05-22T10:01:40.209Z,21.50
2023-05-22T10:04:14.498Z,21.60
2023-05-22T10:06:44.344Z,21.70
2023-05-22T10:09:19.536Z,21.80
2023-05-22T10:11:48.783Z,21.90
2023-05-22T10:14:17.740Z,21.90
2023-05-22T10:16:46.081Z,22.00
2023-05-22T10:19:16.263Z,22.10
2023-05-22T10:21:44.710Z,22.10
2023-05-22T10:24:14.831Z,22.10
2023-05-22T10:26:45.057Z,22.20
2023-05-22T10:29:18.437Z,22.20
2023-05-22T10:31:56.876Z,22.30
2023-05-22T10:34:40.402Z,22.40
2023-05-22T10:37:23.131Z,22.50
2023-05-22T10:40:02.487Z,22.60
2023-05-22T10:42:31.774Z,22.70
2023-05-22T10:45:02.256Z,22.90
2023-05-22T10:47:34.413Z,22.90
2023-05-22T10:50:09.946Z,23.00
2023-05-22T10:52:39.792Z,23.00
2023-05-22T10:55:09.405Z,23.10
2023-05-22T10:57:39.932Z,23.10
2023-05-22T11:00:10.576Z,23.20
2023-05-22T11:02:41.601Z,23.30
2023-05-22T11:05:36.560Z,23.40
2023-05-22T11:08:40.756Z,23.40
2023-05-22T11:11:14.891Z,23.50
2023-05-22T11:13:43.996Z,23.60
2023-05-22T11:16:12.472Z,23.60
2023-05-22T11:18:41.118Z,23.60
2023-05-22T11:21:13.722Z,23.70
2023-05-22T11:23:42.674Z,23.90
2023-05-22T11:26:26.449Z,23.90
2023-05-22T11:28:56.790Z,23.90
2023-05-22T11:31:26.651Z,24.00
2023-05-22T11:33:55.561Z,24.00
2023-05-22T11:36:26.085Z,24.00
2023-05-22T11:39:01.475Z,24.00
2023-05-22T11:41:34.748Z,24.00
2023-05-22T11:44:03.653Z,24.00
2023-05-22T11:46:32.197Z,24.00
2023-05-22T11:49:00.836Z,24.10
2023-05-22T11:51:30.601Z,24.10
2023-05-22T11:53:58.912Z,24.20
2023-05-22T11:56:27.394Z,24.20
2023-05-22T11:58:55.649Z,24.30
2023-05-22T12:01:23.796Z,24.30
2023-05-22T12:03:53.362Z,24.40
2023-05-22T12:06:21.793Z,24.50
2023-05-22T12:08:51.839Z,24.50
2023-05-22T12:11:20.195Z,24.40
2023-05-22T12:13:52.151Z,24.40
2023-05-22T12:16:23.121Z,24.40
2023-05-22T12:18:54.571Z,24.40
2023-05-22T12:21:24.149Z,24.50
2023-05-22T12:23:54.135Z,24.50
2023-05-22T12:26:22.432Z,24.70
2023-05-22T12:28:54.544Z,24.90
2023-05-22T12:31:23.497Z,25.00
2023-05-22T12:33:55.939Z,25.00
2023-05-22T12:36:34.180Z,25.00
2023-05-22T12:39:07.982Z,24.90
2023-05-22T12:41:36.381Z,24.90
2023-05-22T12:44:04.650Z,25.00
2023-05-22T12:46:33.501Z,24.90
2023-05-22T12:49:02.791Z,24.90
2023-05-22T12:51:33.082Z,25.00
2023-05-22T12:54:03.211Z,25.00
2023-05-22T12:56:32.218Z,25.00
2023-05-22T12:59:00.511Z,25.10
2023-05-22T13:01:28.862Z,25.10
2023-05-22T13:03:57.148Z,25.10
2023-05-22T13:06:27.974Z,25.20
2023-05-22T13:08:58.728Z,25.30
2023-05-22T13:11:28.440Z,25.20
2023-05-22T13:13:56.888Z,25.20
2023-05-22T13:16:25.273Z,25.20
2023-05-22T13:18:53.588Z,25.20
2023-05-22T13:21:21.766Z,25.20
2023-05-22T13:23:49.962Z,25.30
2023-05-22T13:26:18.272Z,25.40
2023-05-22T13:28:47.787Z,25.50
2023-05-22T13:31:16.277Z,25.50
2023-05-22T13:33:44.578Z,25.60
2023-05-22T13:36:12.977Z,25.60
2023-05-22T13:38:41.365Z,25.70
2023-05-22T13:41:09.910Z,25.60
2023-05-22T13:43:38.126Z,25.60
2023-05-22T13:46:08.407Z,25.60
2023-05-22T13:48:37.026Z,25.50
2023-05-22T13:51:05.557Z,25.50
2023-05-22T13:53:33.769Z,25.50
2023-05-22T13:56:02.745Z,25.50
2023-05-22T13:58:31.241Z,25.50
2023-05-22T14:00:59.796Z,25.50
2023-05-22T14:03:29.425Z,25.50
2023-05-22T14:05:57.712Z,25.50
2023-05-22T14:08:26.561Z,25.40
2023-05-22T14:10:55.042Z,25.50
2023-05-22T14:13:23.249Z,25.50
2023-05-22T14:15:51.459Z,25.70
2023-05-22T14:18:19.863Z,25.70
2023-05-22T14:20:49.573Z,25.70
2023-05-22T14:23:17.905Z,25.80
2023-05-22T14:25:46.416Z,25.70
2023-05-22T14:28:15.008Z,25.70
2023-05-22T14:30:43.597Z,25.70
2023-05-22T14:33:12.517Z,25.80
2023-05-22T14:35:41.415Z,25.80
2023-05-22T14:38:11.464Z,25.80
2023-05-22T14:40:39.720Z,25.70
2023-05-22T14:43:08.252Z,25.70
2023-05-22T14:45:36.514Z,25.70
2023-05-22T14:48:05.032Z,25.70
2023-05-22T14:50:33.781Z,25.70
2023-05-22T14:53:02.021Z,25.80
2023-05-22T14:55:31.958Z,25.90
2023-05-22T14:58:00.291Z,26.00
2023-05-22T15:00:28.475Z,26.00
2023-05-22T15:02:56.782Z,26.00
2023-05-22T15:05:26.676Z,26.00
2023-05-22T15:07:58.660Z,26.00
2023-05-22T15:10:27.174Z,25.90
2023-05-22T15:12:57.092Z,25.90
2023-05-22T15:15:25.640Z,25.90
2023-05-22T15:17:53.917Z,25.80
2023-05-22T15:20:22.404Z,25.80
2023-05-22T15:22:50.559Z,25.70
2023-05-22T15:25:18.772Z,25.70
2023-05-22T15:27:47.198Z,25.60
2023-05-22T15:30:17.335Z,25.40
2023-05-22T15:32:46.010Z,25.20
2023-05-22T15:35:15.117Z,24.90
2023-05-22T15:37:43.612Z,24.60
2023-05-22T15:40:16.365Z,24.30
2023-05-22T15:42:44.791Z,24.10
2023-05-22T15:45:13.724Z,23.90
2023-05-22T15:47:43.966Z,23.80
2023-05-22T15:50:12.404Z,23.60
2023-05-22T15:52:41.061Z,23.60
2023-05-22T15:55:09.728Z,23.50
2023-05-22T15:57:38.322Z,23.50
2023-05-22T16:00:08.292Z,23.50
2023-05-22T16:02:36.949Z,23.40
2023-05-22T16:05:07.530Z,23.50
2023-05-22T16:07:36.082Z,23.40
2023-05-22T16:10:04.758Z,23.40
2023-05-22T16:12:33.097Z,23.40
2023-05-22T16:15:03.271Z,23.40
2023-05-22T16:17:33.213Z,23.40
2023-05-22T16:20:01.551Z,23.40
2023-05-22T16:22:44.162Z,23.40
2023-05-22T16:25:16.850Z,23.40
2023-05-22T16:27:45.198Z,23.40
2023-05-22T16:30:16.606Z,23.40
2023-05-22T16:32:46.586Z,23.40
2023-05-22T16:35:15.229Z,23.40
2023-05-22T16:37:45.109Z,23.40
2023-05-22T16:40:13.621Z,23.40
2023-05-22T16:42:41.893Z,23.40
2023-05-22T16:45:10.654Z,23.40
2023-05-22T16:47:38.906Z,23.40
2023-05-22T16:50:08.815Z,23.40
2023-05-22T16:52:37.674Z,23.40
2023-05-22T16:55:08.686Z,23.40
2023-05-22T16:57:36.876Z,23.30
2023-05-22T17:00:07.187Z,23.20
2023-05-22T17:02:35.706Z,23.20
2023-05-22T17:05:04.066Z,23.10
2023-05-22T17:07:32.702Z,23.00
2023-05-22T17:10:01.409Z,22.90
2023-05-22T17:12:31.136Z,22.90
2023-05-22T17:14:59.422Z,22.90
2023-05-22T17:17:27.740Z,22.90
2023-05-22T17:19:55.975Z,22.90
2023-05-22T17:22:24.587Z,22.90
2023-05-22T17:24:52.793Z,22.80
2023-05-22T17:27:34.885Z,22.80
2023-05-22T17:30:07.750Z,22.80
2023-05-22T17:32:37.475Z,22.80
2023-05-22T17:35:07.102Z,22.70
2023-05-22T17:37:35.775Z,22.70
2023-05-22T17:40:04.850Z,22.70
2023-05-22T17:42:33.061Z,22.70
2023-05-22T17:45:01.645Z,22.70
2023-05-22T17:47:31.436Z,22.70
2023-05-22T17:49:59.696Z,22.60
2023-05-22T17:52:27.890Z,22.60
2023-05-22T17:54:56.473Z,22.60
2023-05-22T17:57:24.749Z,22.50
2023-05-22T17:59:53.045Z,22.50
2023-05-22T18:02:21.549Z,22.50
2023-05-22T18:04:51.248Z,22.40
2023-05-22T18:07:20.064Z,22.40
2023-05-22T18:09:48.589Z,22.30
2023-05-22T18:12:31.090Z,22.30
2023-05-22T18:15:00.192Z,22.30
2023-05-22T18:17:28.632Z,22.20
2023-05-22T18:19:58.288Z,22.10
2023-05-22T18:22:26.729Z,22.10
2023-05-22T18:24:54.992Z,22.10
2023-05-22T18:27:23.436Z,22.10
2023-05-22T18:29:51.885Z,22.10
2023-05-22T18:32:20.170Z,22.00
2023-05-22T18:34:48.614Z,22.00
2023-05-22T18:37:18.964Z,22.00
2023-05-22T18:39:47.194Z,22.00
2023-05-22T18:42:15.847Z,21.90
2023-05-22T18:44:44.886Z,21.90
2023-05-22T18:47:14.105Z,21.80
2023-05-22T18:49:42.378Z,21.80
2023-05-22T18:52:10.777Z,21.80
2023-05-22T18:54:40.861Z,21.70
2023-05-22T18:57:09.283Z,21.80
2023-05-22T18:59:38.520Z,21.70
2023-05-22T19:02:06.869Z,21.70
2023-05-22T19:04:35.133Z,21.70
2023-05-22T19:07:03.300Z,21.60
2023-05-22T19:09:31.744Z,21.60
2023-05-22T19:12:01.302Z,21.50
2023-05-22T19:14:29.777Z,21.40
2023-05-22T19:16:59.532Z,21.30
2023-05-22T19:19:27.846Z,21.20
2023-05-22T19:21:56.185Z,21.10
2023-05-22T19:24:24.405Z,21.10
2023-05-22T19:26:52.830Z,21.10
2023-05-22T19:29:22.689Z,21.00
2023-05-22T19:31:50.979Z,21.00
2023-05-22T19:34:19.620Z,21.00
2023-05-22T19:36:48.260Z,21.00
2023-05-22T19:39:16.819Z,20.90
2023-05-22T19:41:45.125Z,20.90
2023-05-22T19:44:13.344Z,20.80
2023-05-22T19:46:42.983Z,20.80
2023-05-22T19:49:11.561Z,20.70
2023-05-22T19:51:40.393Z,20.70
2023-05-22T19:54:08.653Z,20.60
2023-05-22T19:56:37.412Z,20.50
2023-05-22T19:59:05.722Z,20.40
2023-05-22T20:01:33.940Z,20.30
2023-05-22T20:04:03.774Z,20.30
2023-05-22T20:06:33.622Z,20.20
2023-05-22T20:09:02.983Z,20.20
2023-05-22T20:11:31.202Z,20.20
2023-05-22T20:13:59.463Z,20.10
2023-05-22T20:16:29.502Z,20.10
2023-05-22T20:18:57.815Z,20.10
2023-05-22T20:21:27.510Z,20.10
2023-05-22T20:23:55.837Z,20.10
2023-05-22T20:26:24.423Z,20.10
2023-05-22T20:28:52.618Z,20.10
2023-05-22T20:31:20.886Z,20.00
2023-05-22T20:33:49.522Z,20.00
2023-05-22T20:36:18.965Z,20.00
2023-05-22T20:38:48.559Z,20.10
2023-05-22T20:41:16.946Z,20.00
2023-05-22T20:43:46.160Z,19.90
2023-05-22T20:46:14.393Z,19.90
2023-05-22T20:48:46.950Z,19.90
2023-05-22T20:51:15.937Z,19.80
2023-05-22T20:53:44.040Z,19.80
2023-05-22T20:56:13.647Z,19.70
2023-05-22T20:58:42.368Z,19.70
2023-05-22T21:01:10.634Z,19.60
2023-05-22T21:03:39.211Z,19.60
2023-05-22T21:06:07.746Z,19.60
2023-05-22T21:08:36.190Z,19.60
2023-05-22T21:11:04.646Z,19.50
2023-05-22T21:13:34.373Z,19.50
2023-05-22T21:16:02.833Z,19.40
2023-05-22T21:18:31.147Z,19.40
2023-05-22T21:20:59.310Z,19.40
2023-05-22T21:23:27.906Z,19.30
2023-05-22T21:25:56.096Z,19.30
2023-05-22T21:28:25.670Z,19.30
2023-05-22T21:30:55.236Z,19.20
2023-05-22T21:33:23.518Z,19.20
2023-05-22T21:35:51.687Z,19.10
2023-05-22T21:38:20.061Z,19.00
2023-05-22T21:40:48.302Z,19.00
2023-05-22T21:43:16.510Z,18.90
2023-05-22T21:45:44.927Z,18.90
2023-05-22T21:48:14.598Z,19.00
2023-05-22T21:50:42.922Z,18.90
2023-05-22T21:53:11.082Z,18.90
2023-05-22T21:55:39.316Z,18.90
2023-05-22T21:58:07.528Z,18.80
2023-05-22T22:00:35.710Z,18.80
2023-05-22T22:03:04.020Z,18.80
2023-05-22T22:05:33.878Z,18.70
2023-05-22T22:08:02.234Z,18.70
2023-05-22T22:10:30.463Z,18.70
2023-05-22T22:12:58.966Z,18.60
2023-05-22T22:15:27.195Z,18.60
2023-05-22T22:17:59.589Z,18.60
2023-05-22T22:20:39.865Z,18.60
2023-05-22T22:23:14.984Z,18.50
2023-05-22T22:25:43.550Z,18.50
2023-05-22T22:28:11.960Z,18.50
2023-05-22T22:30:40.518Z,18.50
2023-05-22T22:33:08.985Z,18.50
2023-05-22T22:35:37.550Z,18.50
2023-05-22T22:38:06.002Z,18.40
2023-05-22T22:40:35.878Z,18.40
2023-05-22T22:43:04.108Z,18.40
2023-05-22T22:45:32.500Z,18.40
2023-05-22T22:48:01.854Z,18.40
2023-05-22T22:50:30.053Z,18.30
2023-05-22T22:52:58.262Z,18.40
2023-05-22T22:55:26.889Z,18.30
2023-05-22T22:57:56.579Z,18.30
2023-05-22T23:00:24.942Z,18.30
2023-05-22T23:02:53.295Z,18.30
2023-05-22T23:05:21.649Z,18.30
2023-05-22T23:07:50.537Z,18.20
2023-05-22T23:10:19.034Z,18.20
2023-05-22T23:12:50.708Z,18.20
2023-05-22T23:15:20.571Z,18.20
2023-05-22T23:17:51.724Z,18.10
2023-05-22T23:20:20.208Z,18.10
2023-05-22T23:22:48.475Z,18.10
2023-05-22T23:25:16.665Z,18.10
2023-05-22T23:27:44.959Z,18.00
2023-05-22T23:30:14.015Z,18.00
2023-05-22T23:32:43.594Z,18.10
2023-05-22T23:35:12.254Z,18.10
2023-05-22T23:37:40.572Z,18.00
2023-05-22T23:40:10.113Z,18.00
2023-05-22T23:42:38.353Z,18.00
2023-05-22T23:45:07.538Z,18.00
2023-05-22T23:47:35.891Z,17.90
2023-05-22T23:50:06.097Z,17.90
2023-05-22T23:52:34.334Z,17.90
2023-05-22T23:55:02.727Z,17.80
2023-05-22T23:57:31.050Z,17.80
2023-05-22T23:59:59.266Z,17.80
